Time;durP1;ratioP1;P1;durP2;ratioP2;P2;SDS_P1;SDS_P2;PMS_P1;PMS_P2;Temp;Humidity;BMP_temperature;BMP_pressure;BME280_temperature;BME280_humidity;BME280_pressure;Samples;Min_cycle;Max_cycle;Signal;HPM_P1;HPM_P2
2022/07/18 00:00:41;;;;;;;;;11.75;11.75;;;;;;;;5246422;28;8829;-73
2022/07/18 00:03:12;;;;;;;;;15.00;15.00;;;;;;;;5246467;28;8876;-73
2022/07/18 00:05:43;;;;;;;;;13.25;13.25;;;;;;;;5228805;28;8811;-73
2022/07/18 00:08:14;;;;;;;;;14.00;14.00;;;;;;;;5229269;28;8795;-73
2022/07/18 00:10:45;;;;;;;;;13.00;13.00;;;;;;;;5229224;28;8884;-72
2022/07/18 00:13:16;;;;;;;;;10.75;10.75;;;;;;;;5228985;28;9498;-73
2022/07/18 00:16:05;;;;;;;;;13.50;13.50;;;;;;;;5248099;28;8810;-73
2022/07/18 00:18:37;;;;;;;;;12.50;12.50;;;;;;;;5245350;28;8791;-73
2022/07/18 00:21:26;;;;;;;;;14.75;14.75;;;;;;;;5246534;28;8794;-74
2022/07/18 00:24:16;;;;;;;;;12.00;12.00;;;;;;;;5245233;28;8827;-72
2022/07/18 00:26:47;;;;;;;;;14.00;14.00;;;;;;;;5229102;28;8798;-72
2022/07/18 00:29:18;;;;;;;;;14.75;14.75;;;;;;;;5245521;28;8767;-73
2022/07/18 00:32:08;;;;;;;;;11.50;11.50;;;;;;;;5260954;28;8800;-72
2022/07/18 00:34:39;;;;;;;;;18.50;17.50;;;;;;;;5235739;28;8779;-72
2022/07/18 00:37:10;;;;;;;;;16.25;16.25;;;;;;;;5245234;28;8791;-73
2022/07/18 00:39:41;;;;;;;;;18.00;18.00;;;;;;;;5247421;28;8910;-74
2022/07/18 00:42:13;;;;;;;;;17.00;17.00;;;;;;;;5246093;28;8913;-74
2022/07/18 00:44:43;;;;;;;;;16.33;16.33;;;;;;;;5246424;28;9060;-73
2022/07/18 00:47:14;;;;;;;;;16.25;16.25;;;;;;;;5228244;28;10325;-72
2022/07/18 00:49:46;;;;;;;;;17.25;17.25;;;;;;;;5246419;28;8783;-73
2022/07/18 00:52:17;;;;;;;;;19.50;19.50;;;;;;;;5245011;28;8791;-73
2022/07/18 00:54:48;;;;;;;;;20.75;20.75;;;;;;;;5266776;28;8788;-73
2022/07/18 00:57:19;;;;;;;;;20.75;20.75;;;;;;;;5249115;28;8965;-73
2022/07/18 01:02:40;;;;;;;;;20.00;20.00;;;;;;;;5248971;28;8776;-74
2022/07/18 01:05:11;;;;;;;;;19.00;19.00;;;;;;;;5248896;28;8867;-74
2022/07/18 01:07:42;;;;;;;;;21.67;21.00;;;;;;;;5243871;28;9540;-74
2022/07/18 01:10:31;;;;;;;;;43.60;36.80;;;;;;;;5259339;28;11484;-74
2022/07/18 01:13:02;;;;;;;;;46.60;40.20;;;;;;;;5246878;28;8779;-74
2022/07/18 01:15:33;;;;;;;;;39.50;35.50;;;;;;;;5253086;28;8829;-74
2022/07/18 01:18:04;;;;;;;;;22.25;22.25;;;;;;;;5251653;28;9680;-72
2022/07/18 01:20:36;;;;;;;;;23.50;23.50;;;;;;;;5269020;28;8784;-72
2022/07/18 01:23:07;;;;;;;;;18.50;18.50;;;;;;;;5252659;28;8812;-72
2022/07/18 01:25:56;;;;;;;;;18.75;18.75;;;;;;;;5255572;28;8760;-71
2022/07/18 01:28:27;;;;;;;;;16.00;16.00;;;;;;;;5236312;28;8776;-72
2022/07/18 01:30:58;;;;;;;;;17.25;17.00;;;;;;;;5249119;28;8850;-73
2022/07/18 01:33:31;;;;;;;;;16.50;16.50;;;;;;;;5248674;28;9648;-72
2022/07/18 01:36:04;;;;;;;;;18.75;18.75;;;;;;;;5232053;28;8845;-73
2022/07/18 01:38:35;;;;;;;;;17.00;17.00;;;;;;;;5248877;28;8767;-73
2022/07/18 01:41:06;;;;;;;;;17.50;17.50;;;;;;;;5257420;28;8800;-73
2022/07/18 01:43:41;;;;;;;;;23.50;23.50;;;;;;;;5277543;28;8796;-73
2022/07/18 01:46:12;;;;;;;;;21.00;21.00;;;;;;;;5261274;28;8768;-73
2022/07/18 01:48:44;;;;;;;;;20.75;20.75;;;;;;;;5256974;28;8810;-73
2022/07/18 01:51:15;;;;;;;;;21.00;21.00;;;;;;;;5232194;28;8913;-74
2022/07/18 01:53:55;;;;;;;;;18.25;18.25;;;;;;;;5248184;28;8929;-73
2022/07/18 01:56:26;;;;;;;;;20.25;20.25;;;;;;;;5248339;28;8767;-73
2022/07/18 01:58:57;;;;;;;;;19.00;19.00;;;;;;;;5248025;28;8787;-73
2022/07/18 02:01:28;;;;;;;;;18.75;18.75;;;;;;;;5231309;28;8813;-73
2022/07/18 02:03:59;;;;;;;;;15.50;15.50;;;;;;;;5252031;28;8839;-74
2022/07/18 02:06:30;;;;;;;;;19.33;19.33;;;;;;;;5269171;28;9549;-73
2022/07/18 02:09:02;;;;;;;;;16.50;16.50;;;;;;;;5258323;28;11164;-74
2022/07/18 02:11:33;;;;;;;;;17.25;17.25;;;;;;;;5247566;28;8933;-74
2022/07/18 02:14:05;;;;;;;;;17.00;17.00;;;;;;;;5253747;28;8813;-73
2022/07/18 02:16:36;;;;;;;;;18.75;18.75;;;;;;;;5266837;28;8828;-74
2022/07/18 02:19:07;;;;;;;;;15.25;15.25;;;;;;;;5268932;28;8799;-74
2022/07/18 02:21:39;;;;;;;;;16.25;16.25;;;;;;;;5256097;28;9540;-72
2022/07/18 02:24:10;;;;;;;;;17.00;17.00;;;;;;;;5213221;28;8837;-73
2022/07/18 02:27:00;;;;;;;;;14.50;14.50;;;;;;;;5247466;28;8817;-73
2022/07/18 02:29:31;;;;;;;;;17.00;17.00;;;;;;;;5231959;28;8815;-73
2022/07/18 02:32:02;;;;;;;;;18.25;18.25;;;;;;;;5230920;28;8805;-72
2022/07/18 02:34:52;;;;;;;;;16.75;16.75;;;;;;;;5248538;28;8833;-72
2022/07/18 02:37:23;;;;;;;;;15.00;15.00;;;;;;;;5230576;28;8799;-72
2022/07/18 02:40:12;;;;;;;;;17.25;17.25;;;;;;;;5248603;28;8787;-72
2022/07/18 02:42:43;;;;;;;;;15.00;15.00;;;;;;;;5230339;28;8802;-73
2022/07/18 02:45:15;;;;;;;;;14.75;14.75;;;;;;;;5247009;28;9147;-72
2022/07/18 02:48:04;;;;;;;;;14.75;14.75;;;;;;;;5248744;28;8784;-72
2022/07/18 02:50:35;;;;;;;;;14.00;14.00;;;;;;;;5248390;28;8775;-73
2022/07/18 02:53:06;;;;;;;;;14.25;14.25;;;;;;;;5246839;28;8937;-73
2022/07/18 02:55:38;;;;;;;;;12.00;12.00;;;;;;;;5247195;28;8871;-73
2022/07/18 02:58:09;;;;;;;;;13.00;13.00;;;;;;;;5247795;28;8787;-72
2022/07/18 03:00:40;;;;;;;;;12.50;12.50;;;;;;;;5262330;28;8780;-75
2022/07/18 03:03:11;;;;;;;;;19.00;19.00;;;;;;;;5268271;28;8823;-73
2022/07/18 03:05:42;;;;;;;;;15.25;15.25;;;;;;;;5245682;28;8824;-73
2022/07/18 03:08:13;;;;;;;;;17.50;17.50;;;;;;;;5230113;28;9494;-72
2022/07/18 03:11:02;;;;;;;;;15.75;15.75;;;;;;;;5245022;28;8899;-72
2022/07/18 03:13:51;;;;;;;;;16.50;16.50;;;;;;;;5249622;28;8824;-71
2022/07/18 03:16:22;;;;;;;;;15.00;15.00;;;;;;;;5258360;28;8815;-71
2022/07/18 03:18:54;;;;;;;;;14.00;14.00;;;;;;;;5241753;28;8771;-72
2022/07/18 03:21:25;;;;;;;;;14.50;14.50;;;;;;;;5217700;28;9526;-73
2022/07/18 03:23:56;;;;;;;;;19.00;19.00;;;;;;;;5229565;28;9537;-73
2022/07/18 03:26:27;;;;;;;;;18.75;18.75;;;;;;;;5247524;28;8907;-73
2022/07/18 03:28:58;;;;;;;;;19.75;19.75;;;;;;;;5229806;28;8805;-72
2022/07/18 03:31:29;;;;;;;;;18.25;18.25;;;;;;;;5246155;28;8798;-74
2022/07/18 03:34:00;;;;;;;;;23.00;23.00;;;;;;;;5246166;28;8779;-73
2022/07/18 03:36:31;;;;;;;;;30.00;29.25;;;;;;;;5213108;28;8821;-72
2022/07/18 03:39:03;;;;;;;;;24.75;24.75;;;;;;;;5264150;28;11485;-73
2022/07/18 03:41:34;;;;;;;;;23.50;23.50;;;;;;;;5258776;28;8864;-73
2022/07/18 03:44:06;;;;;;;;;18.00;18.00;;;;;;;;5229153;28;8811;-73
2022/07/18 03:46:37;;;;;;;;;17.00;17.00;;;;;;;;5245943;28;8787;-73
2022/07/18 03:49:27;;;;;;;;;14.75;14.75;;;;;;;;5231933;28;8795;-72
2022/07/18 03:51:58;;;;;;;;;12.25;12.25;;;;;;;;5247239;28;8778;-72
2022/07/18 03:54:29;;;;;;;;;18.75;18.75;;;;;;;;5257016;28;8798;-72
2022/07/18 03:57:00;;;;;;;;;20.50;20.50;;;;;;;;5239560;28;8811;-73
2022/07/18 03:59:31;;;;;;;;;16.00;16.00;;;;;;;;5260125;28;8820;-72
2022/07/18 04:02:02;;;;;;;;;22.25;22.25;;;;;;;;5250773;28;8790;-71
2022/07/18 04:04:33;;;;;;;;;23.25;23.25;;;;;;;;5235638;28;8841;-73
2022/07/18 04:07:04;;;;;;;;;17.75;17.75;;;;;;;;5245206;28;8808;-74
2022/07/18 04:09:35;;;;;;;;;27.00;26.75;;;;;;;;5245268;28;8803;-72
2022/07/18 04:12:07;;;;;;;;;13.50;13.50;;;;;;;;5246622;28;8791;-73
2022/07/18 04:14:56;;;;;;;;;19.25;18.75;;;;;;;;5251958;28;9495;-74
2022/07/18 04:17:27;;;;;;;;;16.25;16.25;;;;;;;;5232692;28;8799;-74
2022/07/18 04:19:58;;;;;;;;;10.00;10.00;;;;;;;;5231767;28;8856;-74
2022/07/18 04:22:29;;;;;;;;;14.25;13.50;;;;;;;;5253370;28;8924;-73
2022/07/18 04:25:01;;;;;;;;;14.75;14.75;;;;;;;;5251768;28;8858;-72
2022/07/18 04:27:33;;;;;;;;;17.50;17.50;;;;;;;;5247937;28;8841;-72
2022/07/18 04:30:04;;;;;;;;;18.00;18.00;;;;;;;;5241860;28;9599;-72
2022/07/18 04:32:55;;;;;;;;;20.50;20.50;;;;;;;;5254134;28;8826;-72
2022/07/18 04:35:44;;;;;;;;;21.00;21.00;;;;;;;;5265540;28;8788;-72
2022/07/18 04:38:15;;;;;;;;;20.50;20.50;;;;;;;;5257132;28;8892;-72
2022/07/18 04:40:46;;;;;;;;;21.50;21.50;;;;;;;;5227548;28;8791;-71
2022/07/18 04:43:17;;;;;;;;;22.75;22.75;;;;;;;;5242994;28;8833;-72
2022/07/18 04:45:48;;;;;;;;;19.25;19.25;;;;;;;;5242887;28;8823;-72
2022/07/18 04:48:39;;;;;;;;;15.75;15.75;;;;;;;;5259607;28;8795;-72
2022/07/18 04:51:10;;;;;;;;;15.75;15.75;;;;;;;;5248470;28;8827;-71
2022/07/18 04:53:41;;;;;;;;;15.25;15.25;;;;;;;;5244439;28;8816;-72
2022/07/18 04:56:30;;;;;;;;;16.00;16.00;;;;;;;;5244171;28;8771;-68
2022/07/18 04:59:01;;;;;;;;;16.00;16.00;;;;;;;;5243041;28;8823;-71
2022/07/18 05:01:34;;;;;;;;;12.00;12.00;;;;;;;;5225997;28;8795;-71
2022/07/18 05:04:23;;;;;;;;;17.25;17.25;;;;;;;;5228910;28;8839;-72
2022/07/18 05:06:54;;;;;;;;;18.75;18.75;;;;;;;;5245862;28;9514;-72
2022/07/18 05:09:44;;;;;;;;;24.00;23.75;;;;;;;;5249356;28;8950;-72
2022/07/18 05:12:15;;;;;;;;;16.00;16.00;;;;;;;;5263064;28;8927;-72
2022/07/18 05:14:46;;;;;;;;;16.00;16.00;;;;;;;;5265174;28;8865;-72
2022/07/18 05:17:17;;;;;;;;;19.25;19.25;;;;;;;;5246925;28;8792;-72
2022/07/18 05:19:48;;;;;;;;;14.00;14.00;;;;;;;;5248452;28;8810;-72
2022/07/18 05:22:19;;;;;;;;;24.50;24.50;;;;;;;;5228862;28;8791;-72
2022/07/18 05:24:51;;;;;;;;;21.25;21.25;;;;;;;;5243275;28;9567;-72
2022/07/18 05:27:22;;;;;;;;;15.00;15.00;;;;;;;;5226073;28;8807;-72
2022/07/18 05:29:53;;;;;;;;;17.75;17.75;;;;;;;;5246309;28;8822;-72
2022/07/18 05:32:24;;;;;;;;;17.75;17.75;;;;;;;;5264530;28;8796;-72
2022/07/18 05:34:55;;;;;;;;;16.75;16.75;;;;;;;;5264829;28;8793;-72
2022/07/18 05:37:26;;;;;;;;;19.00;19.00;;;;;;;;5246609;28;8788;-72
2022/07/18 05:39:57;;;;;;;;;15.25;15.25;;;;;;;;5263782;28;8773;-72
2022/07/18 05:42:28;;;;;;;;;26.00;26.00;;;;;;;;5234501;28;8916;-72
2022/07/18 05:44:59;;;;;;;;;20.00;20.00;;;;;;;;5246407;28;11553;-71
2022/07/18 05:47:48;;;;;;;;;15.50;15.50;;;;;;;;5246309;28;8783;-71
2022/07/18 05:50:19;;;;;;;;;22.00;22.00;;;;;;;;5260749;28;8803;-72
2022/07/18 05:52:51;;;;;;;;;22.00;22.00;;;;;;;;5231970;28;8857;-72
2022/07/18 05:55:22;;;;;;;;;14.00;14.00;;;;;;;;5248700;28;8784;-72
2022/07/18 05:57:53;;;;;;;;;16.50;16.50;;;;;;;;5232181;28;8785;-72
2022/07/18 06:00:24;;;;;;;;;12.75;12.75;;;;;;;;5268811;28;8793;-72
2022/07/18 06:02:55;;;;;;;;;13.50;13.50;;;;;;;;5252180;28;9531;-72
2022/07/18 06:05:27;;;;;;;;;13.75;13.75;;;;;;;;5247184;28;8825;-72
2022/07/18 06:07:58;;;;;;;;;12.00;12.00;;;;;;;;5253047;28;8784;-72
2022/07/18 06:10:28;;;;;;;;;15.00;15.00;;;;;;;;5269571;28;8860;-72
2022/07/18 06:12:59;;;;;;;;;14.00;14.00;;;;;;;;5268548;28;11116;-72
2022/07/18 06:15:30;;;;;;;;;14.25;14.25;;;;;;;;5268799;28;9593;-72
2022/07/18 06:18:01;;;;;;;;;15.75;15.75;;;;;;;;5266009;28;9046;-72
2022/07/18 06:20:32;;;;;;;;;11.00;11.00;;;;;;;;5256696;28;8913;-72
2022/07/18 06:23:03;;;;;;;;;17.00;17.00;;;;;;;;5247343;28;8803;-72
2022/07/18 06:25:34;;;;;;;;;14.50;14.50;;;;;;;;5249219;28;8848;-72
2022/07/18 06:28:05;;;;;;;;;14.00;14.00;;;;;;;;5230814;28;8810;-72
2022/07/18 06:30:36;;;;;;;;;13.75;13.75;;;;;;;;5248333;28;11493;-72
2022/07/18 06:33:07;;;;;;;;;14.75;14.75;;;;;;;;5247238;28;8936;-72
2022/07/18 06:35:39;;;;;;;;;14.50;14.50;;;;;;;;5214138;28;8795;-72
2022/07/18 06:38:28;;;;;;;;;14.25;14.25;;;;;;;;5255534;28;8780;-72
2022/07/18 06:40:59;;;;;;;;;14.75;14.75;;;;;;;;5269177;28;8799;-72
2022/07/18 06:43:30;;;;;;;;;14.50;14.50;;;;;;;;5234850;28;8789;-72
2022/07/18 06:46:01;;;;;;;;;17.00;17.00;;;;;;;;5269074;28;9527;-72
2022/07/18 06:48:34;;;;;;;;;17.00;17.00;;;;;;;;5251404;28;8792;-72
2022/07/18 06:51:24;;;;;;;;;16.50;16.50;;;;;;;;5253829;28;9498;-72
2022/07/18 06:53:55;;;;;;;;;18.00;18.00;;;;;;;;5269807;28;8768;-72
2022/07/18 06:56:26;;;;;;;;;11.75;11.75;;;;;;;;5251475;28;8769;-72
2022/07/18 06:58:57;;;;;;;;;10.50;10.50;;;;;;;;5269081;28;8787;-71
2022/07/18 07:01:28;;;;;;;;;12.75;12.75;;;;;;;;5250968;28;8776;-72
2022/07/18 07:04:18;;;;;;;;;11.50;11.50;;;;;;;;5267678;28;8809;-72
2022/07/18 07:06:49;;;;;;;;;9.50;9.50;;;;;;;;5267693;28;8784;-71
2022/07/18 07:09:20;;;;;;;;;11.25;11.25;;;;;;;;5256086;28;8790;-71
2022/07/18 07:11:51;;;;;;;;;11.25;11.25;;;;;;;;5241622;28;9556;-71
2022/07/18 07:14:22;;;;;;;;;11.00;11.00;;;;;;;;5237878;28;8818;-71
2022/07/18 07:16:53;;;;;;;;;10.75;10.75;;;;;;;;5231361;28;8827;-71
2022/07/18 07:19:24;;;;;;;;;47.60;40.20;;;;;;;;5265958;28;8934;-72
2022/07/18 07:21:55;;;;;;;;;13.25;13.25;;;;;;;;5245970;28;8917;-72
2022/07/18 07:24:26;;;;;;;;;11.00;11.00;;;;;;;;5265611;28;9570;-72
2022/07/18 07:26:57;;;;;;;;;12.50;12.50;;;;;;;;5268305;28;8789;-71
2022/07/18 07:29:28;;;;;;;;;12.00;12.00;;;;;;;;5267948;28;8765;-71
2022/07/18 07:31:59;;;;;;;;;12.00;12.00;;;;;;;;5265423;28;11463;-71
2022/07/18 07:34:30;;;;;;;;;12.33;12.33;;;;;;;;5266947;28;11455;-71
2022/07/18 07:37:01;;;;;;;;;12.75;12.75;;;;;;;;5236569;28;10890;-71
2022/07/18 07:39:32;;;;;;;;;13.50;13.50;;;;;;;;5236975;28;8801;-72
2022/07/18 07:42:03;;;;;;;;;11.75;11.75;;;;;;;;5246686;28;8917;-72
2022/07/18 07:44:34;;;;;;;;;14.00;13.75;;;;;;;;5244594;28;8850;-72
2022/07/18 07:47:05;;;;;;;;;13.25;13.25;;;;;;;;5247808;28;8815;-71
2022/07/18 07:49:36;;;;;;;;;12.00;12.00;;;;;;;;5262392;28;8776;-71
2022/07/18 07:52:07;;;;;;;;;10.75;10.75;;;;;;;;5267847;28;8784;-72
2022/07/18 07:54:57;;;;;;;;;7.50;7.50;;;;;;;;5266916;28;9487;-71
2022/07/18 07:57:27;;;;;;;;;9.50;9.50;;;;;;;;5249988;28;8845;-71
2022/07/18 07:59:59;;;;;;;;;15.75;15.25;;;;;;;;5266695;28;8768;-71
2022/07/18 08:02:29;;;;;;;;;12.25;12.25;;;;;;;;5266843;28;8816;-71
2022/07/18 08:05:19;;;;;;;;;12.00;12.00;;;;;;;;5259212;28;8835;-71
2022/07/18 08:08:08;;;;;;;;;9.50;9.50;;;;;;;;5257682;28;8804;-71
2022/07/18 08:10:39;;;;;;;;;15.00;15.00;;;;;;;;5262659;28;9649;-71
2022/07/18 08:13:28;;;;;;;;;13.50;13.50;;;;;;;;5246013;28;8891;-71
2022/07/18 08:15:59;;;;;;;;;11.25;11.25;;;;;;;;5255637;28;8812;-71
2022/07/18 08:18:30;;;;;;;;;11.75;11.75;;;;;;;;5256241;28;8791;-71
2022/07/18 08:21:01;;;;;;;;;11.50;11.00;;;;;;;;5221078;28;8799;-71
2022/07/18 08:23:32;;;;;;;;;12.00;12.00;;;;;;;;5245520;28;8840;-71
2022/07/18 08:26:03;;;;;;;;;14.25;14.25;;;;;;;;5245400;28;11577;-71
2022/07/18 08:28:34;;;;;;;;;12.25;12.25;;;;;;;;5228657;28;8776;-71
2022/07/18 08:31:05;;;;;;;;;13.00;13.00;;;;;;;;5254604;28;8880;-71
2022/07/18 08:33:36;;;;;;;;;6.33;6.33;;;;;;;;5249192;28;9650;-71
2022/07/18 08:36:08;;;;;;;;;10.25;10.25;;;;;;;;5239479;28;11468;-71
2022/07/18 08:38:39;;;;;;;;;10.00;10.00;;;;;;;;5260196;28;8803;-71
2022/07/18 08:41:10;;;;;;;;;9.00;9.00;;;;;;;;5266018;28;8790;-71
2022/07/18 08:43:42;;;;;;;;;11.75;11.75;;;;;;;;5249094;28;8984;-71
2022/07/18 08:46:13;;;;;;;;;10.50;10.50;;;;;;;;5267033;28;8857;-71
2022/07/18 08:49:02;;;;;;;;;9.00;9.00;;;;;;;;5251789;28;8875;-71
2022/07/18 08:51:36;;;;;;;;;10.75;10.75;;;;;;;;5245282;28;8917;-71
2022/07/18 08:54:07;;;;;;;;;9.50;9.50;;;;;;;;5244714;28;8780;-71
2022/07/18 08:56:39;;;;;;;;;12.50;12.50;;;;;;;;5245073;28;8767;-71
2022/07/18 08:59:28;;;;;;;;;11.50;11.50;;;;;;;;5245738;28;8767;-71
2022/07/18 09:01:59;;;;;;;;;11.67;11.67;;;;;;;;5246344;28;8857;-72
2022/07/18 09:04:33;;;;;;;;;10.00;10.00;;;;;;;;5228006;28;10594;-72
2022/07/18 09:07:05;;;;;;;;;11.75;11.75;;;;;;;;5246672;28;8789;-71
2022/07/18 09:09:39;;;;;;;;;12.50;12.50;;;;;;;;5243534;28;8818;-71
2022/07/18 09:12:10;;;;;;;;;10.50;10.50;;;;;;;;5242572;28;8783;-71
2022/07/18 09:14:42;;;;;;;;;30.33;29.33;;;;;;;;5251954;28;8783;-72
2022/07/18 09:17:33;;;;;;;;;13.50;13.50;;;;;;;;5261149;28;8777;-70
2022/07/18 09:20:22;;;;;;;;;11.00;11.00;;;;;;;;5257333;28;8823;-73
2022/07/18 09:22:53;;;;;;;;;13.00;13.00;;;;;;;;5258456;28;8941;-73
2022/07/18 09:25:24;;;;;;;;;10.00;10.00;;;;;;;;5252815;28;12269;-73
2022/07/18 09:27:57;;;;;;;;;13.75;13.75;;;;;;;;5246281;28;8775;-73
2022/07/18 09:30:30;;;;;;;;;12.50;12.50;;;;;;;;5264495;28;8866;-74
2022/07/18 09:33:04;;;;;;;;;11.50;11.50;;;;;;;;5265554;28;8792;-74
2022/07/18 09:35:36;;;;;;;;;11.25;11.25;;;;;;;;5252913;28;8864;-74
2022/07/18 09:38:08;;;;;;;;;10.50;10.50;;;;;;;;5270182;28;9492;-74
2022/07/18 09:40:43;;;;;;;;;12.50;12.50;;;;;;;;5269584;28;8769;-72
2022/07/18 09:43:16;;;;;;;;;10.00;10.00;;;;;;;;5270658;28;8784;-71
2022/07/18 09:45:48;;;;;;;;;13.25;13.25;;;;;;;;5269095;28;8800;-72
2022/07/18 09:48:19;;;;;;;;;11.00;11.00;;;;;;;;5268927;28;8794;-72
2022/07/18 09:50:55;;;;;;;;;10.00;10.00;;;;;;;;5270283;28;8898;-73
2022/07/18 09:53:26;;;;;;;;;13.25;13.25;;;;;;;;5270624;28;9468;-72
2022/07/18 09:55:58;;;;;;;;;10.75;10.75;;;;;;;;5270058;28;8777;-73
2022/07/18 09:58:33;;;;;;;;;10.75;10.75;;;;;;;;5252073;28;8791;-73
2022/07/18 10:01:05;;;;;;;;;11.50;11.50;;;;;;;;5267731;28;8800;-74
2022/07/18 10:03:37;;;;;;;;;12.00;12.00;;;;;;;;5250924;28;8791;-74
2022/07/18 10:06:26;;;;;;;;;9.00;9.00;;;;;;;;5268205;28;8808;-73
2022/07/18 10:08:57;;;;;;;;;11.00;11.00;;;;;;;;5267881;28;8784;-73
2022/07/18 10:11:28;;;;;;;;;10.50;10.50;;;;;;;;5267782;28;8796;-74
2022/07/18 10:13:59;;;;;;;;;9.00;9.00;;;;;;;;5251181;28;8777;-74
2022/07/18 10:16:30;;;;;;;;;9.33;9.33;;;;;;;;5267598;28;8850;-74
2022/07/18 10:19:01;;;;;;;;;9.50;9.50;;;;;;;;5269230;28;11445;-74
2022/07/18 10:21:32;;;;;;;;;9.00;9.00;;;;;;;;5269211;28;8823;-74
2022/07/18 10:24:04;;;;;;;;;11.25;11.25;;;;;;;;5269130;28;11402;-74
2022/07/18 10:26:35;;;;;;;;;17.25;17.00;;;;;;;;5267654;28;8791;-74
2022/07/18 10:29:06;;;;;;;;;9.50;9.50;;;;;;;;5251962;28;8786;-73
2022/07/18 10:31:42;;;;;;;;;8.33;8.33;;;;;;;;5232159;28;8807;-72
2022/07/18 10:34:13;;;;;;;;;10.25;10.25;;;;;;;;5255864;28;11511;-72
2022/07/18 10:36:50;;;;;;;;;10.75;10.50;;;;;;;;5247324;28;8840;-73
2022/07/18 10:39:31;;;;;;;;;8.50;8.50;;;;;;;;5257108;28;8808;-73
2022/07/18 10:42:02;;;;;;;;;9.25;9.25;;;;;;;;5263975;28;9646;-74
2022/07/18 10:44:52;;;;;;;;;9.00;9.00;;;;;;;;5247708;28;8856;-74
2022/07/18 10:47:28;;;;;;;;;7.00;7.00;;;;;;;;5230398;28;8809;-73
2022/07/18 10:49:59;;;;;;;;;9.00;9.00;;;;;;;;5248354;28;8791;-73
2022/07/18 10:52:30;;;;;;;;;9.00;9.00;;;;;;;;5246940;28;8791;-73
2022/07/18 10:57:37;;;;;;;;;8.00;8.00;;;;;;;;5246927;28;8762;-73
2022/07/18 11:00:10;;;;;;;;;9.00;9.00;;;;;;;;5246902;28;8771;-73
2022/07/18 11:02:46;;;;;;;;;11.25;11.25;;;;;;;;5246792;28;8779;-74
2022/07/18 11:05:23;;;;;;;;;10.50;10.00;;;;;;;;5246883;28;8834;-74
2022/07/18 11:07:57;;;;;;;;;10.50;10.50;;;;;;;;5230089;28;8775;-73
2022/07/18 11:10:41;;;;;;;;;10.00;10.00;;;;;;;;5229712;28;8809;-73
2022/07/18 11:13:24;;;;;;;;;8.50;8.50;;;;;;;;5213164;28;8917;-73
2022/07/18 11:15:55;;;;;;;;;10.75;10.75;;;;;;;;5230177;28;8794;-73
2022/07/18 11:18:26;;;;;;;;;13.25;13.25;;;;;;;;5237051;28;9533;-73
2022/07/18 11:20:58;;;;;;;;;9.25;9.25;;;;;;;;5230443;28;8795;-72
2022/07/18 11:23:51;;;;;;;;;9.75;9.75;;;;;;;;5257060;28;8973;-74
2022/07/18 11:26:23;;;;;;;;;11.25;11.25;;;;;;;;5221075;28;8945;-73
2022/07/18 11:29:05;;;;;;;;;13.00;13.00;;;;;;;;5245008;28;8828;-74
2022/07/18 11:31:47;;;;;;;;;9.75;9.75;;;;;;;;5229982;28;8787;-74
2022/07/18 11:34:19;;;;;;;;;10.25;10.25;;;;;;;;5229532;28;8793;-74
2022/07/18 11:36:50;;;;;;;;;9.00;9.00;;;;;;;;5247363;28;8818;-74
2022/07/18 11:39:31;;;;;;;;;11.50;11.50;;;;;;;;5246472;28;8787;-74
2022/07/18 11:42:03;;;;;;;;;10.00;10.00;;;;;;;;5246070;28;8775;-74
2022/07/18 11:44:34;;;;;;;;;11.00;11.00;;;;;;;;5229702;28;8949;-74
2022/07/18 11:47:07;;;;;;;;;11.00;11.00;;;;;;;;5245747;28;8780;-74
2022/07/18 11:49:38;;;;;;;;;11.25;11.25;;;;;;;;5246793;28;8885;-74
2022/07/18 11:52:09;;;;;;;;;11.00;11.00;;;;;;;;5246574;28;9588;-74
2022/07/18 11:54:40;;;;;;;;;8.75;8.00;;;;;;;;5245743;28;8807;-74
2022/07/18 11:57:10;;;;;;;;;9.00;9.00;;;;;;;;5231000;28;8820;-72
2022/07/18 11:59:44;;;;;;;;;9.00;9.00;;;;;;;;5233005;28;11578;-74
2022/07/18 12:02:15;;;;;;;;;10.25;10.25;;;;;;;;5246996;28;8799;-74
2022/07/18 12:04:46;;;;;;;;;11.50;10.75;;;;;;;;5260085;28;8894;-74
2022/07/18 12:07:23;;;;;;;;;10.25;10.25;;;;;;;;5266274;28;8808;-74
2022/07/18 12:09:55;;;;;;;;;11.25;11.25;;;;;;;;5233205;28;8869;-75
2022/07/18 12:12:26;;;;;;;;;11.00;11.00;;;;;;;;5265977;28;8792;-74
2022/07/18 12:15:15;;;;;;;;;9.75;9.75;;;;;;;;5265440;28;8854;-74
2022/07/18 12:17:47;;;;;;;;;9.00;9.00;;;;;;;;5260552;28;8811;-74
2022/07/18 12:20:20;;;;;;;;;9.00;9.00;;;;;;;;5250075;28;8784;-74
2022/07/18 12:23:08;;;;;;;;;10.50;10.50;;;;;;;;5240438;28;8834;-74
2022/07/18 12:26:00;;;;;;;;;9.75;9.75;;;;;;;;5266536;28;8808;-74
2022/07/18 12:28:31;;;;;;;;;9.75;9.75;;;;;;;;5267124;28;8792;-72
2022/07/18 12:31:39;;;;;;;;;8.25;8.25;;;;;;;;5249009;28;8785;-73
2022/07/18 12:34:14;;;;;;;;;10.00;10.00;;;;;;;;5231029;28;9752;-73
2022/07/18 12:36:57;;;;;;;;;11.00;11.00;;;;;;;;5245451;28;8779;-73
2022/07/18 12:39:33;;;;;;;;;8.00;8.00;;;;;;;;5245893;28;8767;-74
2022/07/18 12:42:33;;;;;;;;;6.50;6.50;;;;;;;;5232129;28;9524;-72
2022/07/18 12:45:04;;;;;;;;;10.00;10.00;;;;;;;;5228378;28;9569;-74
2022/07/18 12:47:35;;;;;;;;;10.00;10.00;;;;;;;;5244892;28;9667;-74
2022/07/18 12:50:07;;;;;;;;;11.00;11.00;;;;;;;;5232146;28;8816;-73
2022/07/18 12:52:38;;;;;;;;;9.50;9.50;;;;;;;;5266892;28;8887;-74
2022/07/18 12:55:09;;;;;;;;;7.50;7.50;;;;;;;;5240274;28;8838;-74
2022/07/18 12:57:41;;;;;;;;;9.25;9.25;;;;;;;;5265782;28;8793;-74
2022/07/18 13:00:12;;;;;;;;;9.50;9.50;;;;;;;;5256593;28;8795;-74
2022/07/18 13:02:45;;;;;;;;;10.25;10.25;;;;;;;;5225634;28;8905;-74
2022/07/18 13:05:35;;;;;;;;;12.75;12.75;;;;;;;;5247894;28;8826;-74
2022/07/18 13:08:27;;;;;;;;;10.75;10.75;;;;;;;;5245264;28;8933;-74
2022/07/18 13:10:59;;;;;;;;;9.00;9.00;;;;;;;;5256750;28;8807;-74
2022/07/18 13:13:30;;;;;;;;;8.00;8.00;;;;;;;;5236293;28;8788;-74
2022/07/18 13:16:01;;;;;;;;;8.50;8.50;;;;;;;;5253045;28;8792;-74
2022/07/18 13:18:32;;;;;;;;;10.00;10.00;;;;;;;;5269657;28;8796;-73
2022/07/18 13:21:03;;;;;;;;;9.67;9.67;;;;;;;;5269648;28;11609;-74
2022/07/18 13:23:33;;;;;;;;;6.75;6.75;;;;;;;;5252923;28;10003;-73
2022/07/18 13:26:04;;;;;;;;;8.00;8.00;;;;;;;;5236086;28;8854;-74
2022/07/18 13:28:54;;;;;;;;;12.00;12.00;;;;;;;;5260901;28;8828;-73
2022/07/18 13:31:43;;;;;;;;;11.25;11.25;;;;;;;;5246960;28;8841;-74
2022/07/18 13:34:14;;;;;;;;;15.75;15.00;;;;;;;;5269641;28;8801;-74
2022/07/18 13:36:45;;;;;;;;;11.00;11.00;;;;;;;;5252908;28;9471;-74
2022/07/18 13:39:17;;;;;;;;;11.00;11.00;;;;;;;;5246905;28;11429;-74
2022/07/18 13:41:48;;;;;;;;;11.75;11.75;;;;;;;;5251435;28;8846;-74
2022/07/18 13:44:38;;;;;;;;;10.50;10.50;;;;;;;;5248393;28;9526;-74
2022/07/18 13:47:08;;;;;;;;;10.50;10.50;;;;;;;;5231753;28;8798;-74
2022/07/18 13:49:57;;;;;;;;;9.75;9.75;;;;;;;;5269301;28;8796;-74
2022/07/18 13:52:28;;;;;;;;;8.33;8.33;;;;;;;;5254031;28;8864;-75
2022/07/18 13:54:59;;;;;;;;;12.33;12.33;;;;;;;;5248119;28;11433;-75
2022/07/18 13:57:30;;;;;;;;;9.75;9.75;;;;;;;;5248274;28;11475;-74
2022/07/18 14:00:02;;;;;;;;;9.50;9.50;;;;;;;;5250666;28;8772;-74
2022/07/18 14:02:35;;;;;;;;;10.75;10.75;;;;;;;;5259031;28;8783;-74
2022/07/18 14:05:06;;;;;;;;;11.25;11.25;;;;;;;;5251589;28;8837;-74
2022/07/18 14:07:56;;;;;;;;;10.75;10.75;;;;;;;;5258868;28;8920;-74
2022/07/18 14:10:27;;;;;;;;;10.50;10.50;;;;;;;;5267967;28;8785;-74
2022/07/18 14:12:58;;;;;;;;;8.00;8.00;;;;;;;;5266657;28;8816;-74
2022/07/18 14:15:29;;;;;;;;;10.00;10.00;;;;;;;;5266459;28;8799;-74
2022/07/18 14:18:01;;;;;;;;;10.00;10.00;;;;;;;;5228791;28;8783;-74
2022/07/18 14:20:32;;;;;;;;;10.25;10.25;;;;;;;;5211294;28;8844;-75
2022/07/18 14:23:03;;;;;;;;;9.67;9.67;;;;;;;;5229224;28;8823;-75
2022/07/18 14:25:34;;;;;;;;;10.00;10.00;;;;;;;;5257470;28;9066;-74
2022/07/18 14:28:05;;;;;;;;;10.50;10.50;;;;;;;;5250395;28;9274;-74
2022/07/18 14:30:36;;;;;;;;;9.00;9.00;;;;;;;;5250139;28;8916;-74
2022/07/18 14:33:07;;;;;;;;;9.00;9.00;;;;;;;;5250309;28;9585;-74
2022/07/18 14:35:38;;;;;;;;;11.00;11.00;;;;;;;;5231778;28;8897;-74
2022/07/18 14:38:09;;;;;;;;;11.75;11.75;;;;;;;;5225378;28;8798;-74
2022/07/18 14:40:59;;;;;;;;;12.25;12.25;;;;;;;;5247328;28;8961;-75
2022/07/18 14:43:30;;;;;;;;;9.50;9.50;;;;;;;;5230713;28;9031;-74
2022/07/18 14:46:00;;;;;;;;;10.50;10.25;;;;;;;;5232093;28;8949;-74
2022/07/18 14:48:31;;;;;;;;;12.00;12.00;;;;;;;;5267924;28;8787;-74
2022/07/18 14:51:03;;;;;;;;;10.00;10.00;;;;;;;;5269322;28;8796;-73
2022/07/18 14:53:34;;;;;;;;;11.25;11.25;;;;;;;;5268137;28;8785;-75
2022/07/18 14:56:05;;;;;;;;;13.33;13.33;;;;;;;;5250913;28;9577;-72
2022/07/18 14:58:36;;;;;;;;;11.00;11.00;;;;;;;;5264427;28;8814;-74
2022/07/18 15:01:07;;;;;;;;;9.00;9.00;;;;;;;;5259443;28;8775;-73
2022/07/18 15:03:38;;;;;;;;;10.00;10.00;;;;;;;;5247088;28;11650;-73
2022/07/18 15:06:09;;;;;;;;;12.50;12.50;;;;;;;;5246973;28;9097;-73
2022/07/18 15:08:40;;;;;;;;;17.75;17.75;;;;;;;;5229840;28;8983;-73
2022/07/18 15:11:29;;;;;;;;;11.00;11.00;;;;;;;;5232493;28;8798;-73
2022/07/18 15:14:00;;;;;;;;;11.00;11.00;;;;;;;;5233375;28;8809;-73
2022/07/18 15:16:31;;;;;;;;;11.67;11.67;;;;;;;;5255332;28;9513;-73
2022/07/18 15:19:03;;;;;;;;;9.75;9.75;;;;;;;;5264960;28;10863;-71